createdAt,value
2018-01-23T00:00:01.714Z,0.00
2018-01-23T00:00:26.342Z,0.00
2018-01-23T00:01:16.590Z,0.00
2018-01-23T00:01:41.843Z,0.00
2018-01-23T00:02:06.567Z,0.00
2018-01-23T00:02:31.802Z,0.00
2018-01-23T00:02:56.706Z,0.00
2018-01-23T00:03:21.809Z,0.00
2018-01-23T00:04:11.713Z,0.00
2018-01-23T00:04:36.684Z,0.00
2018-01-23T00:05:01.811Z,0.00
2018-01-23T00:05:26.553Z,0.00
2018-01-23T00:05:51.351Z,0.00
2018-01-23T00:06:16.538Z,0.00
2018-01-23T00:06:41.493Z,0.00
2018-01-23T00:07:06.791Z,0.00
2018-01-23T00:07:31.565Z,0.00
2018-01-23T00:07:56.602Z,0.00
2018-01-23T00:08:21.777Z,0.00
2018-01-23T00:08:46.533Z,0.00
2018-01-23T00:09:11.877Z,0.00
2018-01-23T00:09:36.961Z,0.00
2018-01-23T00:10:02.343Z,0.00
2018-01-23T00:10:27.539Z,0.00
2018-01-23T00:10:52.357Z,0.00
2018-01-23T00:11:17.425Z,0.00
2018-01-23T00:11:42.153Z,0.00
2018-01-23T00:12:07.469Z,0.00
2018-01-23T00:12:46.662Z,0.00
2018-01-23T00:14:09.126Z,0.00
2018-01-23T00:15:10.134Z,0.00
2018-01-23T00:16:10.001Z,0.00
2018-01-23T00:17:31.109Z,0.00
2018-01-23T00:18:31.471Z,0.00
2018-01-23T00:19:33.219Z,0.00
2018-01-23T00:20:31.413Z,0.00
2018-01-23T00:21:31.776Z,1.00
2018-01-23T00:22:31.549Z,0.00
2018-01-23T00:23:32.431Z,0.00
2018-01-23T00:24:55.086Z,0.00
2018-01-23T00:25:55.475Z,0.00
2018-01-23T00:26:55.505Z,0.00
2018-01-23T00:27:54.819Z,0.00
2018-01-23T00:28:54.999Z,0.00
2018-01-23T00:29:55.199Z,0.00
2018-01-23T00:30:55.526Z,0.00
2018-01-23T00:31:55.609Z,0.00
2018-01-23T00:32:55.040Z,0.00
2018-01-23T00:33:54.617Z,0.00
2018-01-23T00:34:54.917Z,0.00
2018-01-23T00:35:55.328Z,0.00
2018-01-23T00:36:54.421Z,0.00
2018-01-23T00:37:55.186Z,0.00
2018-01-23T00:38:54.917Z,0.00
2018-01-23T00:39:55.765Z,0.00
2018-01-23T00:40:55.533Z,0.00
2018-01-23T00:41:55.213Z,0.00
2018-01-23T00:42:54.658Z,0.00
2018-01-23T00:43:55.161Z,0.00
2018-01-23T00:44:55.361Z,0.00
2018-01-23T00:45:54.796Z,0.00
2018-01-23T00:47:38.369Z,0.00
2018-01-23T00:48:38.498Z,0.00
2018-01-23T00:50:00.232Z,0.00
2018-01-23T00:51:00.518Z,0.00
2018-01-23T00:52:00.918Z,0.00
2018-01-23T00:53:00.336Z,0.00
2018-01-23T00:54:00.713Z,0.00
2018-01-23T00:55:00.545Z,0.00
2018-01-23T00:56:01.453Z,0.00
2018-01-23T00:57:01.560Z,0.00
2018-01-23T00:58:01.080Z,0.00
2018-01-23T00:59:00.986Z,0.00
2018-01-23T01:00:00.500Z,0.00
2018-01-23T01:01:01.177Z,0.00
2018-01-23T01:02:00.723Z,0.00
2018-01-23T01:03:00.300Z,0.00
2018-01-23T01:04:01.211Z,0.00
2018-01-23T01:05:01.464Z,0.00
2018-01-23T01:06:00.805Z,0.00
2018-01-23T01:07:00.860Z,0.00
2018-01-23T01:08:00.773Z,0.00
2018-01-23T01:09:00.424Z,0.00
2018-01-23T01:10:01.420Z,0.00
2018-01-23T01:11:00.582Z,0.00
2018-01-23T01:12:01.081Z,0.00
2018-01-23T01:13:01.971Z,0.00
2018-01-23T01:14:00.672Z,0.00
2018-01-23T01:15:01.777Z,0.00
2018-01-23T01:16:01.421Z,0.00
2018-01-23T01:17:01.138Z,0.00
2018-01-23T01:18:00.280Z,0.00
2018-01-23T01:19:00.333Z,0.00
2018-01-23T01:20:00.925Z,0.00
2018-01-23T01:21:02.394Z,0.00
2018-01-23T01:22:00.773Z,0.00
2018-01-23T01:23:00.209Z,0.00
2018-01-23T01:24:00.561Z,0.00
2018-01-23T01:25:00.736Z,0.00
2018-01-23T01:26:01.355Z,0.00
2018-01-23T01:27:00.533Z,0.00
2018-01-23T01:28:00.898Z,0.00
2018-01-23T01:29:00.598Z,0.00
2018-01-23T01:30:00.918Z,0.00
2018-01-23T01:31:00.218Z,0.00
2018-01-23T01:32:00.515Z,0.00
2018-01-23T01:33:00.746Z,0.00
2018-01-23T01:34:00.050Z,0.00
2018-01-23T01:35:00.225Z,0.00
2018-01-23T01:36:00.600Z,0.00
2018-01-23T01:37:01.239Z,0.00
2018-01-23T01:38:00.655Z,0.00
2018-01-23T01:39:00.487Z,0.00
2018-01-23T01:40:00.835Z,0.00
2018-01-23T01:41:00.563Z,0.00
2018-01-23T01:42:01.365Z,0.00
2018-01-23T01:43:00.570Z,0.00
2018-01-23T01:44:00.895Z,0.00
2018-01-23T01:45:00.610Z,0.00
2018-01-23T01:46:00.842Z,0.00
2018-01-23T01:47:00.093Z,0.00
2018-01-23T01:48:00.273Z,0.00
2018-01-23T01:49:01.032Z,0.00
2018-01-23T01:50:00.295Z,0.00
2018-01-23T01:51:00.449Z,0.00
2018-01-23T01:52:01.189Z,0.00
2018-01-23T01:53:00.797Z,0.00
2018-01-23T01:54:00.212Z,0.00
2018-01-23T01:55:22.025Z,0.00
2018-01-23T01:56:22.366Z,0.00
2018-01-23T01:57:43.625Z,0.00
2018-01-23T01:59:05.571Z,0.00
2018-01-23T02:00:06.537Z,0.00
2018-01-23T02:01:06.184Z,0.00
2018-01-23T02:02:05.453Z,0.00
2018-01-23T02:03:06.261Z,0.00
2018-01-23T02:04:06.206Z,0.00
2018-01-23T02:05:05.426Z,0.00
2018-01-23T02:06:27.160Z,0.00
2018-01-23T02:07:27.801Z,0.00
2018-01-23T02:08:27.077Z,0.00
2018-01-23T02:09:28.204Z,0.00
2018-01-23T02:10:27.315Z,0.00
2018-01-23T02:11:27.599Z,0.00
2018-01-23T02:12:27.159Z,0.00
2018-01-23T02:13:27.790Z,0.00
2018-01-23T02:14:26.897Z,0.00
2018-01-23T02:15:27.228Z,0.00
2018-01-23T02:16:27.363Z,0.00
2018-01-23T02:17:28.004Z,0.00
2018-01-23T02:18:27.201Z,0.00
2018-01-23T02:19:27.866Z,0.00
2018-01-23T02:20:27.117Z,0.00
2018-01-23T02:21:27.959Z,0.00
2018-01-23T02:22:27.100Z,0.00
2018-01-23T02:23:44.024Z,0.00
2018-01-23T02:24:27.594Z,0.00
2018-01-23T02:25:26.896Z,0.00
2018-01-23T02:26:27.282Z,0.00
2018-01-23T02:27:27.833Z,0.00
2018-01-23T02:28:27.523Z,0.00
2018-01-23T02:29:27.234Z,0.00
2018-01-23T02:30:49.462Z,0.00
2018-01-23T02:31:49.517Z,0.00
2018-01-23T02:32:49.820Z,0.00
2018-01-23T02:33:49.860Z,0.00
2018-01-23T02:34:49.409Z,0.00
2018-01-23T02:35:49.743Z,0.00
2018-01-23T02:37:11.497Z,0.00
2018-01-23T02:38:11.988Z,0.00
2018-01-23T02:39:33.792Z,0.00
2018-01-23T02:40:34.187Z,0.00
2018-01-23T02:41:34.960Z,0.00
2018-01-23T02:42:34.715Z,0.00
2018-01-23T02:43:33.881Z,0.00
2018-01-23T02:44:34.236Z,0.00
2018-01-23T02:45:34.839Z,0.00
2018-01-23T02:46:34.415Z,0.00
2018-01-23T02:47:55.531Z,0.00
2018-01-23T02:49:17.286Z,0.00
2018-01-23T02:50:38.849Z,0.00
2018-01-23T02:51:39.620Z,0.00
2018-01-23T02:52:38.926Z,0.00
2018-01-23T02:53:39.196Z,0.00
2018-01-23T02:54:39.946Z,0.00
2018-01-23T02:55:39.593Z,0.00
2018-01-23T02:56:38.628Z,0.00
2018-01-23T02:57:39.014Z,0.00
2018-01-23T02:58:39.191Z,0.00
2018-01-23T02:59:39.407Z,0.00
2018-01-23T03:00:38.586Z,0.00
2018-01-23T03:01:38.687Z,0.00
2018-01-23T03:02:38.999Z,0.00
2018-01-23T03:03:39.246Z,0.00
2018-01-23T03:04:39.466Z,0.00
2018-01-23T03:05:39.295Z,0.00
2018-01-23T03:06:39.035Z,0.00
2018-01-23T03:07:40.104Z,0.00
2018-01-23T03:08:39.409Z,0.00
2018-01-23T03:09:39.103Z,0.00
2018-01-23T03:10:39.783Z,0.00
2018-01-23T03:11:39.257Z,0.00
2018-01-23T03:13:00.643Z,0.00
2018-01-23T03:14:00.785Z,0.00
2018-01-23T03:15:01.094Z,0.00
2018-01-23T03:16:23.235Z,0.00
2018-01-23T03:17:23.781Z,0.00
2018-01-23T03:18:23.293Z,0.00
2018-01-23T03:19:23.937Z,0.00
2018-01-23T03:20:23.410Z,0.00
2018-01-23T03:21:23.660Z,0.00
2018-01-23T03:22:22.950Z,0.00
2018-01-23T03:23:23.068Z,0.00
2018-01-23T03:24:23.267Z,0.00
2018-01-23T03:25:23.722Z,0.00
2018-01-23T03:26:22.995Z,0.00
2018-01-23T03:27:23.653Z,0.00
2018-01-23T03:28:23.225Z,0.00
2018-01-23T03:29:23.551Z,0.00
2018-01-23T03:30:22.764Z,0.00
2018-01-23T03:31:22.889Z,0.00
2018-01-23T03:32:23.113Z,0.00
2018-01-23T03:33:23.708Z,0.00
2018-01-23T03:34:22.813Z,0.00
2018-01-23T03:35:23.107Z,0.00
2018-01-23T03:36:23.391Z,0.00
2018-01-23T03:37:23.557Z,0.00
2018-01-23T03:38:23.076Z,0.00
2018-01-23T03:39:23.246Z,0.00
2018-01-23T03:40:23.545Z,0.00
2018-01-23T03:41:23.318Z,0.00
2018-01-23T03:42:23.552Z,0.00
2018-01-23T03:43:23.984Z,0.00
2018-01-23T03:44:23.285Z,0.00
2018-01-23T03:45:23.150Z,0.00
2018-01-23T03:46:23.883Z,0.00
2018-01-23T03:47:23.127Z,0.00
2018-01-23T03:48:23.301Z,0.00
2018-01-23T03:49:23.639Z,0.00
2018-01-23T03:50:23.071Z,0.00
2018-01-23T03:51:23.731Z,0.00
2018-01-23T03:52:23.052Z,0.00
2018-01-23T03:53:23.297Z,0.00
2018-01-23T03:54:45.067Z,0.00
2018-01-23T03:55:45.655Z,0.00
2018-01-23T03:56:45.137Z,0.00
2018-01-23T03:57:45.869Z,0.00
2018-01-23T03:58:45.101Z,0.00
2018-01-23T03:59:45.928Z,0.00
2018-01-23T04:00:45.177Z,0.00
2018-01-23T04:01:45.575Z,0.00
2018-01-23T04:02:45.130Z,0.00
2018-01-23T04:03:45.909Z,0.00
2018-01-23T04:04:45.072Z,0.00
2018-01-23T04:05:46.030Z,0.00
2018-01-23T04:06:45.465Z,0.00
2018-01-23T04:07:44.712Z,0.00
2018-01-23T04:08:44.961Z,0.00
2018-01-23T04:09:45.554Z,0.00
2018-01-23T04:10:45.186Z,0.00
2018-01-23T04:11:45.901Z,0.00
2018-01-23T04:12:45.039Z,0.00
2018-01-23T04:13:45.439Z,0.00
2018-01-23T04:14:45.547Z,0.00
2018-01-23T04:15:44.769Z,0.00
2018-01-23T04:16:44.938Z,0.00
2018-01-23T04:17:45.516Z,0.00
2018-01-23T04:18:45.306Z,0.00
2018-01-23T04:19:45.773Z,0.00
2018-01-23T04:20:45.438Z,0.00
2018-01-23T04:21:45.455Z,0.00
2018-01-23T04:22:44.588Z,0.00
2018-01-23T04:23:45.182Z,0.00
2018-01-23T04:25:07.502Z,0.00
2018-01-23T04:26:08.066Z,0.00
2018-01-23T04:27:07.487Z,0.00
2018-01-23T04:28:08.199Z,0.00
2018-01-23T04:29:28.810Z,0.00
2018-01-23T04:30:29.101Z,0.00
2018-01-23T04:31:29.875Z,0.00
2018-01-23T04:32:29.197Z,0.00
2018-01-23T04:33:29.917Z,0.00
2018-01-23T04:34:29.290Z,0.00
2018-01-23T04:35:29.855Z,0.00
2018-01-23T04:36:29.245Z,0.00
2018-01-23T04:37:30.099Z,0.00
2018-01-23T04:38:29.299Z,0.00
2018-01-23T04:39:29.817Z,0.00
2018-01-23T04:40:29.415Z,0.00
2018-01-23T04:41:28.738Z,0.00
2018-01-23T04:42:28.978Z,0.00
2018-01-23T04:43:29.231Z,0.00
2018-01-23T04:44:46.560Z,0.00
2018-01-23T04:45:47.174Z,0.00
2018-01-23T04:46:47.380Z,0.00
2018-01-23T04:47:47.739Z,0.00
2018-01-23T04:48:47.430Z,0.00
2018-01-23T04:49:46.916Z,0.00
2018-01-23T04:50:47.230Z,0.00
2018-01-23T04:51:47.124Z,0.00
2018-01-23T04:52:47.768Z,0.00
2018-01-23T04:53:46.971Z,0.00
2018-01-23T04:54:47.697Z,0.00
2018-01-23T04:55:46.826Z,0.00
2018-01-23T04:56:47.593Z,0.00
2018-01-23T04:57:47.223Z,0.00
2018-01-23T04:58:47.899Z,0.00
2018-01-23T04:59:47.576Z,0.00
2018-01-23T05:00:47.201Z,0.00
2018-01-23T05:01:47.382Z,0.00
2018-01-23T05:02:47.492Z,0.00
2018-01-23T05:03:46.650Z,0.00
2018-01-23T05:04:47.217Z,0.00
2018-01-23T05:05:47.734Z,0.00
2018-01-23T05:06:47.126Z,0.00
2018-01-23T05:07:47.869Z,0.00
2018-01-23T05:08:47.514Z,0.00
2018-01-23T05:09:46.785Z,0.00
2018-01-23T05:10:47.068Z,0.00
2018-01-23T05:11:47.855Z,0.00
2018-01-23T05:12:47.755Z,0.00
2018-01-23T05:13:47.059Z,0.00
2018-01-23T05:14:47.683Z,0.00
2018-01-23T05:15:47.396Z,0.00
2018-01-23T05:16:46.915Z,0.00
2018-01-23T05:17:47.276Z,0.00
2018-01-23T05:18:47.403Z,0.00
2018-01-23T05:19:47.053Z,0.00
2018-01-23T05:20:47.789Z,0.00
2018-01-23T05:21:47.490Z,0.00
2018-01-23T05:22:47.346Z,0.00
2018-01-23T05:23:46.611Z,0.00
2018-01-23T05:24:46.753Z,0.00
2018-01-23T05:25:47.288Z,0.00
2018-01-23T05:26:46.560Z,0.00
2018-01-23T05:27:46.724Z,0.00
2018-01-23T05:28:47.379Z,0.00
2018-01-23T05:29:46.607Z,0.00
2018-01-23T05:30:46.784Z,0.00
2018-01-23T05:31:47.371Z,0.00
2018-01-23T05:32:46.824Z,0.00
2018-01-23T05:33:46.868Z,0.00
2018-01-23T05:34:47.025Z,0.00
2018-01-23T05:35:47.704Z,0.00
2018-01-23T05:36:47.421Z,0.00
2018-01-23T05:37:47.266Z,0.00
2018-01-23T05:38:46.621Z,0.00
2018-01-23T05:39:46.755Z,0.00
2018-01-23T05:40:47.465Z,0.00
2018-01-23T05:41:47.225Z,0.00
2018-01-23T05:42:47.990Z,0.00
2018-01-23T05:43:47.133Z,0.00
2018-01-23T05:44:47.412Z,0.00
2018-01-23T05:45:46.844Z,0.00
2018-01-23T05:46:47.083Z,0.00
2018-01-23T05:47:47.372Z,0.00
2018-01-23T05:48:47.105Z,0.00
2018-01-23T05:49:50.716Z,0.00
2018-01-23T05:50:49.705Z,0.00
2018-01-23T05:51:46.929Z,0.00
2018-01-23T05:53:08.714Z,1.00
2018-01-23T05:54:09.453Z,2.00
2018-01-23T05:55:09.264Z,1.00
2018-01-23T05:56:08.890Z,1.00
2018-01-23T05:57:29.817Z,2.00
2018-01-23T05:58:30.389Z,2.00
2018-01-23T05:59:52.295Z,2.00
2018-01-23T06:00:53.197Z,2.00
2018-01-23T06:01:52.870Z,2.00
2018-01-23T06:02:53.718Z,2.00
2018-01-23T06:03:53.284Z,2.00
2018-01-23T06:04:52.862Z,2.00
2018-01-23T06:05:53.499Z,2.00
2018-01-23T06:06:53.134Z,0.00
2018-01-23T06:07:52.493Z,0.00
2018-01-23T06:08:52.749Z,0.00
2018-01-23T06:09:53.389Z,0.00
2018-01-23T06:10:53.368Z,0.00
2018-01-23T06:11:53.094Z,0.00
2018-01-23T06:12:52.533Z,0.00
2018-01-23T06:13:55.420Z,0.00
2018-01-23T06:14:52.899Z,0.00
2018-01-23T06:15:54.349Z,0.00
2018-01-23T06:16:52.596Z,0.00
2018-01-23T06:17:53.396Z,0.00
2018-01-23T06:18:53.016Z,0.00
2018-01-23T06:20:14.740Z,0.00
2018-01-23T06:21:15.081Z,0.00
2018-01-23T06:22:42.034Z,0.00
2018-01-23T06:23:42.909Z,0.00
2018-01-23T06:24:42.695Z,0.00
2018-01-23T06:25:47.914Z,0.00
2018-01-23T06:26:44.111Z,0.00
2018-01-23T06:27:43.337Z,0.00
2018-01-23T06:28:44.029Z,0.00
2018-01-23T06:30:28.572Z,0.00
2018-01-23T06:31:29.161Z,0.00
2018-01-23T06:32:29.564Z,0.00
2018-01-23T06:33:29.135Z,0.00
2018-01-23T06:34:29.543Z,1.00
2018-01-23T06:35:28.971Z,1.00
2018-01-23T06:36:29.313Z,0.00
2018-01-23T06:37:29.799Z,0.00
2018-01-23T06:38:51.908Z,1.00
2018-01-23T06:39:52.250Z,0.00
2018-01-23T06:40:53.152Z,1.00
2018-01-23T06:41:52.235Z,2.00
2018-01-23T06:42:50.711Z,1.00
2018-01-23T06:43:51.419Z,2.00
2018-01-23T06:44:51.068Z,2.00
2018-01-23T06:45:52.283Z,2.00
2018-01-23T06:46:52.513Z,3.00
2018-01-23T06:47:53.224Z,3.00
2018-01-23T06:48:52.609Z,5.00
2018-01-23T06:49:52.236Z,6.00
2018-01-23T06:50:51.668Z,7.00
2018-01-23T06:51:51.498Z,8.00
2018-01-23T06:52:54.843Z,9.00
2018-01-23T06:53:53.715Z,11.00
2018-01-23T06:54:53.212Z,14.00
2018-01-23T06:55:53.682Z,16.00
2018-01-23T06:56:53.435Z,19.00
2018-01-23T06:57:54.379Z,22.00
2018-01-23T06:58:52.349Z,26.00
2018-01-23T06:59:51.914Z,32.00
2018-01-23T07:00:54.450Z,35.00
2018-01-23T07:01:51.302Z,40.00
2018-01-23T07:02:51.656Z,47.00
2018-01-23T07:03:50.961Z,53.00
2018-01-23T07:04:51.338Z,61.00
2018-01-23T07:05:52.058Z,70.00
2018-01-23T07:06:52.426Z,80.00
2018-01-23T07:07:51.512Z,92.00
2018-01-23T07:08:52.039Z,105.00
2018-01-23T07:09:52.279Z,119.00
2018-01-23T07:10:52.518Z,136.00
2018-01-23T07:11:51.990Z,154.00
2018-01-23T07:12:52.170Z,175.00
2018-01-23T07:13:51.990Z,194.00
2018-01-23T07:14:51.734Z,218.00
2018-01-23T07:15:51.459Z,242.00
2018-01-23T07:16:51.575Z,268.00
2018-01-23T07:17:51.336Z,296.00
2018-01-23T07:18:52.530Z,325.00
2018-01-23T07:19:51.399Z,357.00
2018-01-23T07:20:52.265Z,387.00
2018-01-23T07:21:52.210Z,425.00
2018-01-23T07:22:52.236Z,445.00
2018-01-23T07:23:52.666Z,478.00
2018-01-23T07:25:34.786Z,523.00
2018-01-23T07:26:34.862Z,541.00
2018-01-23T07:27:35.074Z,561.00
2018-01-23T07:28:34.868Z,584.00
2018-01-23T07:29:35.777Z,607.00
2018-01-23T07:30:34.791Z,630.00
2018-01-23T07:31:34.969Z,661.00
2018-01-23T07:32:34.584Z,686.00
2018-01-23T07:33:34.628Z,715.00
2018-01-23T07:34:35.431Z,732.00
2018-01-23T07:35:34.933Z,744.00
2018-01-23T07:36:39.724Z,751.00
2018-01-23T07:37:38.807Z,757.00
2018-01-23T07:38:39.502Z,782.00
2018-01-23T07:39:37.649Z,847.00
2018-01-23T07:40:36.811Z,942.00
2018-01-23T07:41:36.555Z,1037.00
2018-01-23T07:42:38.490Z,1132.00
2018-01-23T07:43:38.055Z,1223.00
2018-01-23T07:44:37.065Z,1325.00
2018-01-23T07:45:38.646Z,1401.00
2018-01-23T07:46:38.764Z,1461.00
2018-01-23T07:47:38.010Z,1502.00
2018-01-23T07:49:00.552Z,1708.00
2018-01-23T07:50:01.440Z,1819.00
2018-01-23T07:51:01.193Z,1841.00
2018-01-23T07:52:00.695Z,1709.00
2018-01-23T07:53:01.358Z,1821.00
2018-01-23T07:54:02.324Z,1969.00
2018-01-23T07:55:24.536Z,2055.00
2018-01-23T07:56:25.147Z,1953.00
2018-01-23T07:57:24.607Z,1900.00
2018-01-23T07:58:25.117Z,1926.00
2018-01-23T07:59:25.553Z,1919.00
2018-01-23T08:00:25.352Z,1878.00
2018-01-23T08:01:25.364Z,1867.00
2018-01-23T08:02:25.685Z,1909.00
2018-01-23T08:03:23.760Z,1970.00
2018-01-23T08:04:24.979Z,1960.00
2018-01-23T08:05:25.095Z,1941.00
2018-01-23T08:06:25.647Z,1904.00
2018-01-23T08:07:24.414Z,2029.00
2018-01-23T08:08:24.736Z,2191.00
2018-01-23T08:09:25.324Z,2437.00
2018-01-23T08:10:23.702Z,2568.00
2018-01-23T08:11:25.642Z,2596.00
2018-01-23T08:12:25.134Z,2518.00
2018-01-23T08:13:25.438Z,2454.00
2018-01-23T08:14:22.601Z,2467.00
2018-01-23T08:15:22.026Z,2631.00
2018-01-23T08:16:44.645Z,2634.00
2018-01-23T08:17:45.370Z,2697.00
2018-01-23T08:18:45.040Z,2615.00
2018-01-23T08:19:49.785Z,2711.00
2018-01-23T08:20:45.785Z,2774.00
2018-01-23T08:21:45.666Z,2864.00
2018-01-23T08:22:47.521Z,2852.00
2018-01-23T08:23:47.429Z,2643.00
2018-01-23T08:24:46.905Z,2656.00
2018-01-23T08:25:49.504Z,2745.00
2018-01-23T08:27:06.774Z,2865.00
2018-01-23T08:28:34.396Z,3004.00
2018-01-23T08:29:28.849Z,3295.00
2018-01-23T08:30:29.258Z,3428.00
2018-01-23T08:31:31.102Z,3403.00
2018-01-23T08:32:29.855Z,3336.00
2018-01-23T08:33:29.125Z,3465.00
2018-01-23T08:34:29.816Z,3429.00
2018-01-23T08:35:29.314Z,3560.00
2018-01-23T08:36:28.931Z,3695.00
2018-01-23T08:37:29.642Z,3629.00
2018-01-23T08:38:29.492Z,3506.00
2018-01-23T08:39:28.986Z,3673.00
2018-01-23T08:40:29.465Z,3744.00
2018-01-23T08:41:29.193Z,3995.00
2018-01-23T08:42:28.684Z,4215.00
2018-01-23T08:43:29.517Z,4326.00
2018-01-23T08:44:28.865Z,4406.00
2018-01-23T08:45:29.161Z,4514.00
2018-01-23T08:46:28.845Z,4722.00
2018-01-23T08:47:29.275Z,4948.00
2018-01-23T08:48:28.398Z,5185.00
2018-01-23T08:49:28.723Z,5304.00
2018-01-23T08:50:29.449Z,5347.00
2018-01-23T08:51:28.599Z,5346.00
2018-01-23T08:52:29.362Z,5324.00
2018-01-23T08:53:29.205Z,5344.00
2018-01-23T08:54:29.012Z,5447.00
2018-01-23T08:55:29.706Z,5533.00
2018-01-23T08:56:29.521Z,5556.00
2018-01-23T08:57:29.304Z,5551.00
2018-01-23T08:58:28.640Z,5518.00
2018-01-23T08:59:29.264Z,5442.00
2018-01-23T09:00:51.039Z,5288.00
2018-01-23T09:01:51.489Z,5218.00
2018-01-23T09:02:52.020Z,5228.00
2018-01-23T09:04:12.501Z,5341.00
2018-01-23T09:05:12.833Z,5393.00
2018-01-23T09:06:13.207Z,5384.00
2018-01-23T09:07:13.498Z,5402.00
2018-01-23T09:08:12.866Z,5397.00
2018-01-23T09:09:57.379Z,5366.00
2018-01-23T09:10:57.807Z,5337.00
2018-01-23T09:11:57.198Z,5464.00
2018-01-23T09:12:58.052Z,5751.00
2018-01-23T09:13:57.575Z,6069.00
2018-01-23T09:14:57.475Z,6308.00
2018-01-23T09:15:57.001Z,6384.00
2018-01-23T09:16:57.821Z,6259.00
2018-01-23T09:17:57.111Z,6145.00
2018-01-23T09:18:57.455Z,6191.00
2018-01-23T09:19:56.925Z,6448.00
2018-01-23T09:20:57.714Z,6697.00
2018-01-23T09:21:57.613Z,6766.00
2018-01-23T09:22:56.944Z,6949.00
2018-01-23T09:23:57.846Z,7551.00
2018-01-23T09:24:57.062Z,8368.00
2018-01-23T09:25:58.036Z,8739.00
2018-01-23T09:26:57.452Z,9078.00
2018-01-23T09:27:58.414Z,9485.00
2018-01-23T09:28:58.163Z,9761.00
2018-01-23T09:29:57.487Z,10114.00
2018-01-23T09:30:56.818Z,10275.00
2018-01-23T09:31:57.110Z,10127.00
2018-01-23T09:32:58.193Z,9310.00
2018-01-23T09:33:57.477Z,8388.00
2018-01-23T09:34:57.309Z,7790.00
2018-01-23T09:35:57.989Z,7292.00
2018-01-23T09:36:57.982Z,6971.00
2018-01-23T09:37:57.968Z,6818.00
2018-01-23T09:38:57.546Z,6595.00
2018-01-23T09:39:58.237Z,6413.00
2018-01-23T09:40:57.992Z,6282.00
2018-01-23T09:41:57.786Z,6161.00
2018-01-23T09:42:57.014Z,6293.00
2018-01-23T09:43:57.690Z,6754.00
2018-01-23T09:45:18.761Z,7320.00
2018-01-23T09:46:19.066Z,7495.00
2018-01-23T09:47:18.411Z,7230.00
2018-01-23T09:48:39.629Z,6412.00
2018-01-23T09:49:39.787Z,5974.00
2018-01-23T09:51:01.823Z,5649.00
2018-01-23T09:52:02.653Z,5596.00
2018-01-23T09:53:02.479Z,5517.00
2018-01-23T09:54:01.943Z,5483.00
2018-01-23T09:55:02.165Z,6083.00
2018-01-23T09:56:01.601Z,6919.00
2018-01-23T09:57:01.863Z,6996.00
2018-01-23T09:58:01.888Z,6653.00
2018-01-23T09:59:01.873Z,6604.00
2018-01-23T10:00:02.152Z,7141.00
2018-01-23T10:01:02.120Z,7817.00
2018-01-23T10:02:01.981Z,8264.00
2018-01-23T10:03:01.975Z,8875.00
2018-01-23T10:04:02.937Z,9395.00
2018-01-23T10:05:01.947Z,9782.00
2018-01-23T10:06:02.439Z,10430.00
2018-01-23T10:07:01.875Z,10631.00
2018-01-23T10:08:23.741Z,10588.00
2018-01-23T10:09:24.305Z,10555.00
2018-01-23T10:10:23.705Z,10736.00
2018-01-23T10:11:23.929Z,10457.00
2018-01-23T10:12:25.124Z,9869.00
2018-01-23T10:13:23.450Z,9283.00
2018-01-23T10:14:24.004Z,9067.00
2018-01-23T10:15:24.176Z,9879.00
2018-01-23T10:16:23.538Z,10471.00
2018-01-23T10:17:24.427Z,10797.00
2018-01-23T10:18:24.281Z,10831.00
2018-01-23T10:19:23.714Z,10982.00
2018-01-23T10:20:24.005Z,10954.00
2018-01-23T10:21:24.428Z,10531.00
2018-01-23T10:22:24.334Z,10045.00
2018-01-23T10:23:24.108Z,9605.00
2018-01-23T10:24:23.312Z,9491.00
2018-01-23T10:25:23.545Z,10089.00
2018-01-23T10:26:23.995Z,10350.00
2018-01-23T10:27:23.410Z,10435.00
2018-01-23T10:28:24.262Z,10412.00
2018-01-23T10:29:23.626Z,10225.00
2018-01-23T10:30:24.355Z,9920.00
2018-01-23T10:31:23.648Z,9372.00
2018-01-23T10:32:23.830Z,9277.00
2018-01-23T10:33:24.716Z,9210.00
2018-01-23T10:34:23.949Z,9141.00
2018-01-23T10:35:23.794Z,8995.00
2018-01-23T10:36:24.748Z,9206.00
2018-01-23T10:37:24.658Z,8832.00
2018-01-23T10:38:24.516Z,9649.00
2018-01-23T10:39:24.257Z,10410.00
2018-01-23T10:40:24.093Z,10952.00
2018-01-23T10:41:24.066Z,11291.00
2018-01-23T10:42:44.791Z,11579.00
2018-01-23T10:43:45.160Z,11394.00
2018-01-23T10:44:45.420Z,11187.00
2018-01-23T10:45:44.848Z,10957.00
2018-01-23T10:46:45.362Z,10695.00
2018-01-23T10:47:44.730Z,10804.00
2018-01-23T10:48:45.099Z,10901.00
2018-01-23T10:49:45.682Z,10879.00
2018-01-23T10:50:45.051Z,10809.00
2018-01-23T10:51:45.457Z,10755.00
2018-01-23T10:52:44.636Z,10850.00
2018-01-23T10:53:45.429Z,11200.00
2018-01-23T10:54:44.794Z,11416.00
2018-01-23T10:55:45.603Z,11527.00
2018-01-23T10:56:45.096Z,11427.00
2018-01-23T10:57:45.512Z,11189.00
2018-01-23T10:58:44.961Z,11329.00
2018-01-23T10:59:45.416Z,11482.00
2018-01-23T11:00:45.448Z,11604.00
2018-01-23T11:02:07.259Z,10908.00
2018-01-23T11:03:29.395Z,10644.00
2018-01-23T11:04:29.405Z,10852.00
2018-01-23T11:05:28.855Z,11466.00
2018-01-23T11:06:29.349Z,12328.00
2018-01-23T11:07:29.751Z,12144.00
2018-01-23T11:08:29.517Z,12010.00
2018-01-23T11:09:30.074Z,13038.00
2018-01-23T11:10:29.288Z,13826.00
2018-01-23T11:11:30.265Z,13968.00
2018-01-23T11:12:29.668Z,14188.00
2018-01-23T11:13:29.220Z,14147.00
2018-01-23T11:14:30.026Z,14171.00
2018-01-23T11:15:29.644Z,14578.00
2018-01-23T11:16:29.152Z,14061.00
2018-01-23T11:17:29.912Z,14629.00
2018-01-23T11:18:29.584Z,15133.00
2018-01-23T11:19:29.528Z,15380.00
2018-01-23T11:20:30.045Z,16427.00
2018-01-23T11:21:29.414Z,17112.00
2018-01-23T11:22:30.257Z,17384.00
2018-01-23T11:23:29.833Z,17400.00
2018-01-23T11:24:29.232Z,16151.00
2018-01-23T11:25:50.595Z,14721.00
2018-01-23T11:26:50.780Z,13798.00
2018-01-23T11:27:51.358Z,12654.00
2018-01-23T11:28:50.961Z,11639.00
2018-01-23T11:29:51.241Z,11180.00
2018-01-23T11:30:50.455Z,10968.00
2018-01-23T11:32:12.878Z,10807.00
2018-01-23T11:33:13.117Z,10829.00
2018-01-23T11:34:34.134Z,11119.00
2018-01-23T11:35:34.473Z,11219.00
2018-01-23T11:36:33.893Z,11312.00
2018-01-23T11:37:34.665Z,11283.00
2018-01-23T11:38:55.230Z,11917.00
2018-01-23T11:39:56.097Z,11914.00
2018-01-23T11:40:55.420Z,11779.00
2018-01-23T11:41:56.240Z,11512.00
2018-01-23T11:42:55.689Z,11217.00
2018-01-23T11:43:56.569Z,9935.00
2018-01-23T11:44:55.965Z,9299.00
2018-01-23T11:45:56.711Z,9478.00
2018-01-23T11:46:56.000Z,10279.00
2018-01-23T11:47:55.476Z,11051.00
2018-01-23T11:48:55.995Z,11198.00
2018-01-23T11:49:56.230Z,11355.00
2018-01-23T11:51:17.641Z,10792.00
2018-01-23T11:52:18.890Z,10742.00
2018-01-23T11:53:18.766Z,10855.00
2018-01-23T11:54:18.125Z,10745.00
2018-01-23T11:55:17.640Z,10725.00
2018-01-23T11:56:19.555Z,10630.00
2018-01-23T11:57:18.111Z,10442.00
2018-01-23T11:58:17.980Z,10323.00
2018-01-23T11:59:18.771Z,10002.00
2018-01-23T12:00:18.211Z,9641.00
2018-01-23T12:01:17.780Z,9523.00
2018-01-23T12:02:18.708Z,9653.00
2018-01-23T12:03:39.810Z,10559.00
2018-01-23T12:04:40.106Z,10567.00
2018-01-23T12:05:40.565Z,9580.00
2018-01-23T12:06:40.524Z,8855.00
2018-01-23T12:07:40.778Z,8447.00
2018-01-23T12:08:40.361Z,8408.00
2018-01-23T12:09:40.589Z,9065.00
2018-01-23T12:10:40.557Z,9752.00
2018-01-23T12:11:40.422Z,9825.00
2018-01-23T12:12:44.480Z,9215.00
2018-01-23T12:14:26.550Z,9049.00
2018-01-23T12:15:27.456Z,9646.00
2018-01-23T12:16:27.574Z,10400.00
2018-01-23T12:17:27.168Z,10320.00
2018-01-23T12:18:26.877Z,9963.00
2018-01-23T12:19:27.691Z,10260.00
2018-01-23T12:20:27.084Z,10510.00
2018-01-23T12:21:26.662Z,10555.00
2018-01-23T12:22:27.208Z,10718.00
2018-01-23T12:23:26.684Z,10699.00
2018-01-23T12:24:27.031Z,10119.00
2018-01-23T12:25:26.892Z,9411.00
2018-01-23T12:26:26.858Z,9351.00
2018-01-23T12:27:26.641Z,9816.00
2018-01-23T12:28:27.628Z,10565.00
2018-01-23T12:29:28.209Z,10553.00
2018-01-23T12:30:27.191Z,9760.00
2018-01-23T12:31:27.097Z,9396.00
2018-01-23T12:32:26.781Z,9208.00
2018-01-23T12:33:30.418Z,8652.00
2018-01-23T12:34:27.758Z,8384.00
2018-01-23T12:35:27.144Z,8275.00
2018-01-23T12:36:26.878Z,7706.00
2018-01-23T12:37:27.587Z,7495.00
2018-01-23T12:38:27.445Z,7902.00
2018-01-23T12:39:27.374Z,8489.00
2018-01-23T12:40:27.206Z,8772.00
2018-01-23T12:41:26.544Z,8687.00
2018-01-23T12:42:26.918Z,8365.00
2018-01-23T12:43:27.600Z,7615.00
2018-01-23T12:44:27.134Z,6725.00
2018-01-23T12:45:27.030Z,6493.00
2018-01-23T12:46:26.539Z,6891.00
2018-01-23T12:47:26.859Z,7630.00